Главная страница
METAR-TAF:

METAR-TAF

Аэропорты :

Зенджан, Иран

широта: 36-41N, долгота: 048-29E, высота над уровнем моря: 1663 м

Текущие метеонаблюдения

Эта сводка был подготовлена 3 часа и 56 минут назад, в 15:00 UTC
Ветер 6 Узел от южный-юго-западный
Температура 27°C
Влажность 12%
Давление 1011 hPa
Видимость 10 км и более
Нет облачности ниже 1500 м, и нет кучево-дождевой облачности

METAR: OITZ 171500Z 20006KT CAVOK 27/M05 Q1011 A2985

Время: 23:26 (18:56 UTC)


TAF: отсутствует

Метеонаблюдения и прогнозы для более 4000 аэропортов (сводки METAR и TAF).

Имеющиеся станции представлены на карте желтыми и красными точками.

Чтобы увидеть название станции, наведите на нее мышь.

Затем щелкните, чтобы увидеть метеонаблюдения и метеопрогнозы.

Управление картой: чтобы увеличить масштаб, щелкните зеленые кнопки с черным крестиком; чтобы уменьшить масштаб, щелкните зеленую кнопку с тире; для просмотра соседних карт щелкайте зеленые стрелки.


METAR-TAF: